Cancún, México

12:16 AM EDT en Mayo 24, 2017 (GMT -0400)
Cancun International | | Change Station

Alt 23 ft 21.03 °N, 86.87 °W | Updated 24 minutes ago

Scattered Clouds
Nubes dispersas
82 ° F
Sensación térmica 92 ° F
N
13
Viento Variable Viento desde SE

Hoy
Alta -- | Baja -- ° F
--% Posibilidad de precipitaciones
Ayer
Alta -- | Baja -- ° F
Precip. -- pul
Presión 29.86 pul
Visibilidad 7.0 Millas
Nubes Nubes dispersas 1800 ft
Nubes dispersas 30000 ft
Índice de calor 92 ° F
Punto de rocío 79 ° F
Humedad 89%
Precipitaciones 0.00 pul
Espesor de la nieve No disponible.
7:06 AM 8:22 PM
Creciente menguante, 4% visible
METAR MMUN 240352Z 13011KT 7SM SCT018 SCT300 28/26 A2986 RMK 8/508
Presión 29.86 pul
Visibilidad 7.0 Millas
Nubes Nubes dispersas 1800 ft
Nubes dispersas 30000 ft
Índice de calor 92 ° F
Punto de rocío 79 ° F
Humedad 89%
Precipitaciones 0.00 pul
Espesor de la nieve No disponible.
7:06 AM 8:22 PM
Creciente menguante, 4% visible
METAR MMUN 240352Z 13011KT 7SM SCT018 SCT300 28/26 A2986 RMK 8/508

Get Severe Weather Alerts

Thanks for signing up!

Be on the lookout for a verification email in your inbox.

You'll start receiving the daily forecast at 6 AM.

×

10-Day Weather Forecast

No radar image for this location.
×

Almanac

Astronomía

May. 24, 2017 Salida Puesta
Hora real
Crepúsculo civil
Crepúsculo náutico
Crepúsculo astronómico
Luna
Horas de luz
Horas de luz
Tomorrow will be .
, % of the Moon is Illuminated

Extremos de hoy

Máximos del país Bajas del país

Community

WunderPhotos

Category 6

Welcome to Category 6. This is the collective home for Weather Underground's featured writeups by Dr. Jeff Masters (right), Bob Henson (left), Chris Burt, and other regular contributors.

Nearby

Calidad del aire

  Calidad del aire Índice AQ Contaminante
Not available.

Grosos de nieve

Estación Profundido Altura

Actividad de terremotos

Ciudad Distance Mag. Tiempo y dato
Magnitud mínima muestra es 2,5.

Temperaturas de aguas costeras

Lugar Temperatura

Stations

Estaciones meteorológicas cercanas

Ubicación de la estación Temp. Vientos helados Punto de rocío Humedad Viento Precip. Alt Actualizado Tipo